Terminal Aerodrome Forecast
Issued by NWS

Current Version | Previous Version | Graphics & Text | Print | Product List | Glossary On
Versions: 1 2 3 4 5 6 7 8 9 10 11 12 13 14 15 16 17 18 19 20 21 22 23 24 25 26 27
000
FTUS41 KILN 211500 AAC
TAFLCK
TAF AMD
KLCK 211503Z 2115/2212 27014G23KT P6SM BKN023 BKN040
     FM211600 26015G24KT P6SM SCT035
     FM211900 29017G27KT P6SM SCT040
     FM212100 29017G27KT P6SM BKN040
     FM220100 30012KT P6SM OVC020=

USA.gov is the U.S. government's official web portal to all federal, state and local government web resources and services.